sensor_id;sensor_type;location;lat;lon;timestamp;pressure;altitude;pressure_sealevel;temperature;humidity
20628;BME280;10473;42.734;24.258;2022-07-06T00:01:02;92076.03;;;21.48;72.78
20628;BME280;10473;42.734;24.258;2022-07-06T00:03:30;92076.56;;;21.43;73.13
20628;BME280;10473;42.734;24.258;2022-07-06T00:05:57;92071.94;;;21.43;72.92
20628;BME280;10473;42.734;24.258;2022-07-06T00:08:25;92067.75;;;21.42;73.28
20628;BME280;10473;42.734;24.258;2022-07-06T00:10:53;92059.00;;;21.38;73.55
20628;BME280;10473;42.734;24.258;2022-07-06T00:13:21;92054.56;;;21.32;74.10
20628;BME280;10473;42.734;24.258;2022-07-06T00:15:49;92050.91;;;21.38;73.16
20628;BME280;10473;42.734;24.258;2022-07-06T00:18:18;92040.78;;;21.42;73.41
20628;BME280;10473;42.734;24.258;2022-07-06T00:20:46;92038.81;;;21.43;73.27
20628;BME280;10473;42.734;24.258;2022-07-06T00:23:13;92026.41;;;20.92;75.87
20628;BME280;10473;42.734;24.258;2022-07-06T00:25:41;92022.75;;;20.98;75.89
20628;BME280;10473;42.734;24.258;2022-07-06T00:28:09;92010.84;;;21.12;74.94
20628;BME280;10473;42.734;24.258;2022-07-06T00:30:37;92001.38;;;21.20;74.64
20628;BME280;10473;42.734;24.258;2022-07-06T00:33:05;92001.09;;;21.02;75.71
20628;BME280;10473;42.734;24.258;2022-07-06T00:35:37;91997.78;;;20.82;76.88
20628;BME280;10473;42.734;24.258;2022-07-06T00:38:05;91994.28;;;20.97;75.90
20628;BME280;10473;42.734;24.258;2022-07-06T00:40:32;91996.38;;;21.06;75.39
20628;BME280;10473;42.734;24.258;2022-07-06T00:43:00;91989.44;;;21.05;75.77
20628;BME280;10473;42.734;24.258;2022-07-06T00:45:28;91986.91;;;21.14;74.79
20628;BME280;10473;42.734;24.258;2022-07-06T00:47:56;91981.97;;;21.25;74.64
20628;BME280;10473;42.734;24.258;2022-07-06T00:50:24;91974.88;;;21.31;74.37
20628;BME280;10473;42.734;24.258;2022-07-06T00:52:55;91978.22;;;21.35;73.87
20628;BME280;10473;42.734;24.258;2022-07-06T00:55:25;91973.81;;;21.41;73.77
20628;BME280;10473;42.734;24.258;2022-07-06T00:57:53;91967.09;;;21.45;73.08
20628;BME280;10473;42.734;24.258;2022-07-06T01:00:23;91962.06;;;21.47;72.10
20628;BME280;10473;42.734;24.258;2022-07-06T01:02:52;91963.56;;;21.48;72.84
20628;BME280;10473;42.734;24.258;2022-07-06T01:05:21;91964.28;;;21.49;73.05
20628;BME280;10473;42.734;24.258;2022-07-06T01:07:52;91946.63;;;21.48;73.35
20628;BME280;10473;42.734;24.258;2022-07-06T01:10:21;91946.31;;;21.46;73.06
20628;BME280;10473;42.734;24.258;2022-07-06T01:12:49;91949.53;;;21.53;73.04
20628;BME280;10473;42.734;24.258;2022-07-06T01:15:19;91938.94;;;21.59;72.60
20628;BME280;10473;42.734;24.258;2022-07-06T01:17:48;91926.47;;;21.52;72.10
20628;BME280;10473;42.734;24.258;2022-07-06T01:20:18;91934.44;;;21.56;72.72
20628;BME280;10473;42.734;24.258;2022-07-06T01:22:48;91923.66;;;21.56;72.68
20628;BME280;10473;42.734;24.258;2022-07-06T01:25:16;91920.31;;;21.52;72.86
20628;BME280;10473;42.734;24.258;2022-07-06T01:27:45;91914.59;;;21.37;73.83
20628;BME280;10473;42.734;24.258;2022-07-06T01:30:16;91904.69;;;20.81;75.64
20628;BME280;10473;42.734;24.258;2022-07-06T01:32:44;91899.66;;;20.95;75.11
20628;BME280;10473;42.734;24.258;2022-07-06T01:35:13;91896.34;;;21.04;74.51
20628;BME280;10473;42.734;24.258;2022-07-06T01:37:43;91888.38;;;21.13;73.44
20628;BME280;10473;42.734;24.258;2022-07-06T01:40:11;91880.94;;;21.17;73.51
20628;BME280;10473;42.734;24.258;2022-07-06T01:42:39;91884.28;;;21.21;73.49
20628;BME280;10473;42.734;24.258;2022-07-06T01:45:08;91886.44;;;21.26;73.38
20628;BME280;10473;42.734;24.258;2022-07-06T01:47:38;91882.56;;;21.27;73.58
20628;BME280;10473;42.734;24.258;2022-07-06T01:50:07;91882.78;;;21.32;73.24
20628;BME280;10473;42.734;24.258;2022-07-06T01:52:40;91882.34;;;21.34;73.07
20628;BME280;10473;42.734;24.258;2022-07-06T01:55:09;91878.34;;;21.38;72.60
20628;BME280;10473;42.734;24.258;2022-07-06T01:57:38;91871.34;;;21.41;72.60
20628;BME280;10473;42.734;24.258;2022-07-06T02:00:08;91862.06;;;21.42;72.05
20628;BME280;10473;42.734;24.258;2022-07-06T02:02:46;91854.41;;;21.40;72.09
20628;BME280;10473;42.734;24.258;2022-07-06T02:05:14;91846.75;;;21.39;72.28
20628;BME280;10473;42.734;24.258;2022-07-06T02:07:43;91843.44;;;21.35;72.39
20628;BME280;10473;42.734;24.258;2022-07-06T02:10:13;91845.47;;;21.31;73.04
20628;BME280;10473;42.734;24.258;2022-07-06T02:12:43;91836.31;;;21.28;72.43
20628;BME280;10473;42.734;24.258;2022-07-06T02:15:11;91836.31;;;21.28;72.12
20628;BME280;10473;42.734;24.258;2022-07-06T02:17:40;91832.41;;;21.29;72.19
20628;BME280;10473;42.734;24.258;2022-07-06T02:20:08;91825.53;;;21.28;72.15
20628;BME280;10473;42.734;24.258;2022-07-06T02:22:36;91830.03;;;21.31;72.14
20628;BME280;10473;42.734;24.258;2022-07-06T02:25:05;91834.03;;;21.27;72.62
20628;BME280;10473;42.734;24.258;2022-07-06T02:27:35;91839.31;;;21.30;71.67
20628;BME280;10473;42.734;24.258;2022-07-06T02:30:06;91838.56;;;21.30;71.54
20628;BME280;10473;42.734;24.258;2022-07-06T02:32:36;91843.31;;;21.26;71.69
20628;BME280;10473;42.734;24.258;2022-07-06T02:35:04;91853.69;;;21.27;71.14
20628;BME280;10473;42.734;24.258;2022-07-06T02:37:32;91844.28;;;21.19;73.14
20628;BME280;10473;42.734;24.258;2022-07-06T02:40:00;91848.47;;;21.08;73.08
20628;BME280;10473;42.734;24.258;2022-07-06T02:42:29;91857.88;;;21.03;72.06
20628;BME280;10473;42.734;24.258;2022-07-06T02:44:58;91859.06;;;21.15;71.31
20628;BME280;10473;42.734;24.258;2022-07-06T02:47:26;91849.25;;;20.96;72.68
20628;BME280;10473;42.734;24.258;2022-07-06T02:49:54;91864.56;;;20.58;75.34
20628;BME280;10473;42.734;24.258;2022-07-06T02:52:22;91873.88;;;20.82;73.34
20628;BME280;10473;42.734;24.258;2022-07-06T02:54:50;91882.59;;;20.86;74.00
20628;BME280;10473;42.734;24.258;2022-07-06T02:57:19;91880.63;;;20.74;74.29
20628;BME280;10473;42.734;24.258;2022-07-06T02:59:47;91880.25;;;20.47;73.74
20628;BME280;10473;42.734;24.258;2022-07-06T03:02:19;91887.69;;;20.55;73.75
20628;BME280;10473;42.734;24.258;2022-07-06T03:04:47;91887.50;;;20.62;73.51
20628;BME280;10473;42.734;24.258;2022-07-06T03:07:16;91883.84;;;20.28;74.38
20628;BME280;10473;42.734;24.258;2022-07-06T03:09:44;91881.19;;;20.40;74.60
20628;BME280;10473;42.734;24.258;2022-07-06T03:12:13;91882.75;;;20.25;76.23
20628;BME280;10473;42.734;24.258;2022-07-06T03:14:42;91883.97;;;20.08;77.53
20628;BME280;10473;42.734;24.258;2022-07-06T03:17:10;91899.22;;;20.27;77.00
20628;BME280;10473;42.734;24.258;2022-07-06T03:19:40;91893.16;;;20.23;77.50
20628;BME280;10473;42.734;24.258;2022-07-06T03:22:08;91900.34;;;19.82;78.86
20628;BME280;10473;42.734;24.258;2022-07-06T03:24:36;91900.88;;;20.09;78.22
20628;BME280;10473;42.734;24.258;2022-07-06T03:27:05;91904.69;;;20.24;77.45
20628;BME280;10473;42.734;24.258;2022-07-06T03:29:33;91906.88;;;20.29;78.12
20628;BME280;10473;42.734;24.258;2022-07-06T03:32:01;91910.38;;;20.42;76.78
20628;BME280;10473;42.734;24.258;2022-07-06T03:34:29;91904.91;;;20.45;77.14
20628;BME280;10473;42.734;24.258;2022-07-06T03:36:59;91899.88;;;20.31;78.14
20628;BME280;10473;42.734;24.258;2022-07-06T03:39:27;91909.09;;;20.46;77.31
20628;BME280;10473;42.734;24.258;2022-07-06T03:41:56;91905.88;;;20.51;77.49
20628;BME280;10473;42.734;24.258;2022-07-06T03:44:24;91901.94;;;20.56;77.81
20628;BME280;10473;42.734;24.258;2022-07-06T03:46:52;91899.63;;;20.42;77.41
20628;BME280;10473;42.734;24.258;2022-07-06T03:49:23;91904.94;;;20.29;78.45
20628;BME280;10473;42.734;24.258;2022-07-06T03:51:54;91908.84;;;20.12;78.74
20628;BME280;10473;42.734;24.258;2022-07-06T03:54:24;91912.69;;;20.27;78.71
20628;BME280;10473;42.734;24.258;2022-07-06T03:56:56;91906.78;;;20.32;78.55
20628;BME280;10473;42.734;24.258;2022-07-06T03:59:24;91919.06;;;20.33;78.90
20628;BME280;10473;42.734;24.258;2022-07-06T04:01:52;91917.38;;;20.23;79.14
20628;BME280;10473;42.734;24.258;2022-07-06T04:04:20;91906.50;;;19.82;80.37
20628;BME280;10473;42.734;24.258;2022-07-06T04:06:48;91918.88;;;20.12;80.07
20628;BME280;10473;42.734;24.258;2022-07-06T04:09:18;91923.69;;;20.33;78.41
20628;BME280;10473;42.734;24.258;2022-07-06T04:11:48;91924.25;;;20.40;77.47
20628;BME280;10473;42.734;24.258;2022-07-06T04:14:16;91914.91;;;20.45;77.96
20628;BME280;10473;42.734;24.258;2022-07-06T04:16:44;91922.81;;;20.52;76.99
20628;BME280;10473;42.734;24.258;2022-07-06T04:19:12;91917.97;;;20.31;78.39
20628;BME280;10473;42.734;24.258;2022-07-06T04:21:40;91912.56;;;20.47;78.21
20628;BME280;10473;42.734;24.258;2022-07-06T04:24:08;91910.66;;;20.60;78.15
20628;BME280;10473;42.734;24.258;2022-07-06T04:26:37;91917.03;;;20.66;77.28
20628;BME280;10473;42.734;24.258;2022-07-06T04:29:07;91915.31;;;20.72;76.81
20628;BME280;10473;42.734;24.258;2022-07-06T04:31:34;91916.63;;;20.80;76.58
20628;BME280;10473;42.734;24.258;2022-07-06T04:34:02;91911.47;;;20.85;76.00
20628;BME280;10473;42.734;24.258;2022-07-06T04:36:32;91913.94;;;20.80;76.67
20628;BME280;10473;42.734;24.258;2022-07-06T04:39:00;91916.75;;;20.89;76.95
20628;BME280;10473;42.734;24.258;2022-07-06T04:41:28;91904.47;;;20.88;76.36
20628;BME280;10473;42.734;24.258;2022-07-06T04:43:56;91911.41;;;21.01;75.94
20628;BME280;10473;42.734;24.258;2022-07-06T04:46:25;91913.94;;;21.08;75.75
20628;BME280;10473;42.734;24.258;2022-07-06T04:48:54;91921.13;;;21.11;75.21
20628;BME280;10473;42.734;24.258;2022-07-06T04:51:27;91916.50;;;21.12;75.66
20628;BME280;10473;42.734;24.258;2022-07-06T04:53:55;91906.25;;;21.07;75.81
20628;BME280;10473;42.734;24.258;2022-07-06T04:56:23;91912.63;;;21.13;74.98
20628;BME280;10473;42.734;24.258;2022-07-06T04:58:51;91914.59;;;21.12;75.23
20628;BME280;10473;42.734;24.258;2022-07-06T05:01:21;91908.63;;;21.05;76.07
20628;BME280;10473;42.734;24.258;2022-07-06T05:03:50;91908.97;;;21.07;76.15
20628;BME280;10473;42.734;24.258;2022-07-06T05:06:21;91916.91;;;20.98;76.41
20628;BME280;10473;42.734;24.258;2022-07-06T05:08:50;91914.59;;;20.84;76.42
20628;BME280;10473;42.734;24.258;2022-07-06T05:11:18;91925.22;;;20.91;77.11
20628;BME280;10473;42.734;24.258;2022-07-06T05:13:47;91934.16;;;21.00;76.44
20628;BME280;10473;42.734;24.258;2022-07-06T05:16:16;91933.63;;;21.05;76.58
20628;BME280;10473;42.734;24.258;2022-07-06T05:18:44;91924.22;;;20.97;76.53
20628;BME280;10473;42.734;24.258;2022-07-06T05:21:14;91942.47;;;21.06;75.41
20628;BME280;10473;42.734;24.258;2022-07-06T05:23:42;91944.19;;;21.00;75.60
20628;BME280;10473;42.734;24.258;2022-07-06T05:26:10;91952.88;;;20.91;75.54
20628;BME280;10473;42.734;24.258;2022-07-06T05:28:38;91958.28;;;20.91;76.13
20628;BME280;10473;42.734;24.258;2022-07-06T05:31:10;91941.88;;;20.86;76.36
20628;BME280;10473;42.734;24.258;2022-07-06T05:33:39;91957.53;;;20.91;76.35
20628;BME280;10473;42.734;24.258;2022-07-06T05:36:08;91959.03;;;20.92;76.53
20628;BME280;10473;42.734;24.258;2022-07-06T05:38:38;91962.72;;;20.98;76.90
20628;BME280;10473;42.734;24.258;2022-07-06T05:41:07;91964.22;;;20.99;76.43
20628;BME280;10473;42.734;24.258;2022-07-06T05:43:35;91957.34;;;20.98;77.57
20628;BME280;10473;42.734;24.258;2022-07-06T05:46:03;91965.09;;;20.96;76.98
20628;BME280;10473;42.734;24.258;2022-07-06T05:48:34;91953.25;;;20.49;78.57
20628;BME280;10473;42.734;24.258;2022-07-06T05:51:19;91965.31;;;20.73;78.11
20628;BME280;10473;42.734;24.258;2022-07-06T05:53:49;91963.75;;;20.88;77.88
20628;BME280;10473;42.734;24.258;2022-07-06T05:56:19;91962.66;;;20.57;80.16
20628;BME280;10473;42.734;24.258;2022-07-06T05:58:47;91957.03;;;20.80;78.12
20628;BME280;10473;42.734;24.258;2022-07-06T06:01:15;91958.22;;;20.79;77.92
20628;BME280;10473;42.734;24.258;2022-07-06T06:03:48;91960.50;;;20.52;79.42
20628;BME280;10473;42.734;24.258;2022-07-06T06:06:16;91972.94;;;20.62;79.71
20628;BME280;10473;42.734;24.258;2022-07-06T06:08:43;91971.88;;;20.72;79.29
20628;BME280;10473;42.734;24.258;2022-07-06T06:11:13;91967.88;;;20.92;78.88
20628;BME280;10473;42.734;24.258;2022-07-06T06:13:41;91972.13;;;21.06;77.48
20628;BME280;10473;42.734;24.258;2022-07-06T06:16:09;91974.50;;;21.16;77.33
20628;BME280;10473;42.734;24.258;2022-07-06T06:18:37;91979.28;;;21.25;76.91
20628;BME280;10473;42.734;24.258;2022-07-06T06:21:04;91980.91;;;21.35;77.46
20628;BME280;10473;42.734;24.258;2022-07-06T06:23:32;91975.97;;;21.46;76.92
20628;BME280;10473;42.734;24.258;2022-07-06T06:26:00;91982.09;;;21.59;75.68
20628;BME280;10473;42.734;24.258;2022-07-06T06:28:29;91971.75;;;21.32;75.86
20628;BME280;10473;42.734;24.258;2022-07-06T06:30:57;91977.22;;;21.29;75.09
20628;BME280;10473;42.734;24.258;2022-07-06T06:33:24;91972.72;;;20.69;77.03
20628;BME280;10473;42.734;24.258;2022-07-06T06:35:53;91969.63;;;20.99;77.48
20628;BME280;10473;42.734;24.258;2022-07-06T06:38:22;91970.31;;;21.28;75.96
20628;BME280;10473;42.734;24.258;2022-07-06T06:40:52;91970.06;;;21.10;76.59
20628;BME280;10473;42.734;24.258;2022-07-06T06:43:20;91976.13;;;21.14;76.66
20628;BME280;10473;42.734;24.258;2022-07-06T06:46:12;91968.69;;;21.18;77.50
20628;BME280;10473;42.734;24.258;2022-07-06T06:48:40;91967.84;;;21.21;76.50
20628;BME280;10473;42.734;24.258;2022-07-06T06:51:09;91970.56;;;21.46;76.39
20628;BME280;10473;42.734;24.258;2022-07-06T06:53:36;91948.13;;;21.49;75.43
20628;BME280;10473;42.734;24.258;2022-07-06T06:56:05;91966.28;;;21.73;74.43
20628;BME280;10473;42.734;24.258;2022-07-06T06:58:32;91965.31;;;21.80;74.11
20628;BME280;10473;42.734;24.258;2022-07-06T07:01:00;91950.19;;;22.07;75.85
20628;BME280;10473;42.734;24.258;2022-07-06T07:03:29;91958.09;;;22.36;74.00
20628;BME280;10473;42.734;24.258;2022-07-06T07:05:57;91951.41;;;22.40;71.17
20628;BME280;10473;42.734;24.258;2022-07-06T07:08:25;91966.78;;;22.65;70.86
20628;BME280;10473;42.734;24.258;2022-07-06T07:10:53;91957.13;;;22.76;71.29
20628;BME280;10473;42.734;24.258;2022-07-06T07:13:21;91957.84;;;22.55;71.76
20628;BME280;10473;42.734;24.258;2022-07-06T07:15:48;91952.69;;;22.48;70.90
20628;BME280;10473;42.734;24.258;2022-07-06T07:18:16;91960.91;;;22.32;72.43
20628;BME280;10473;42.734;24.258;2022-07-06T07:20:45;91960.75;;;22.61;72.12
20628;BME280;10473;42.734;24.258;2022-07-06T07:23:13;91967.16;;;22.76;70.05
20628;BME280;10473;42.734;24.258;2022-07-06T07:25:41;91959.25;;;22.81;69.17
20628;BME280;10473;42.734;24.258;2022-07-06T07:28:09;91966.69;;;22.90;68.24
20628;BME280;10473;42.734;24.258;2022-07-06T07:30:36;91964.13;;;22.52;70.42
20628;BME280;10473;42.734;24.258;2022-07-06T07:33:04;91965.88;;;22.80;70.23
20628;BME280;10473;42.734;24.258;2022-07-06T07:35:32;91969.66;;;22.49;69.83
20628;BME280;10473;42.734;24.258;2022-07-06T07:38:01;91963.06;;;22.37;70.29
20628;BME280;10473;42.734;24.258;2022-07-06T07:40:29;91954.63;;;22.35;71.45
20628;BME280;10473;42.734;24.258;2022-07-06T07:42:57;91956.84;;;22.62;73.34
20628;BME280;10473;42.734;24.258;2022-07-06T07:45:25;91961.34;;;22.99;71.31
20628;BME280;10473;42.734;24.258;2022-07-06T07:47:53;91959.28;;;23.24;68.68
20628;BME280;10473;42.734;24.258;2022-07-06T07:50:21;91947.81;;;23.42;69.66
20628;BME280;10473;42.734;24.258;2022-07-06T07:52:49;91947.94;;;23.69;69.94
20628;BME280;10473;42.734;24.258;2022-07-06T07:55:18;91941.72;;;23.90;68.33
20628;BME280;10473;42.734;24.258;2022-07-06T07:57:46;91942.41;;;24.39;69.67
20628;BME280;10473;42.734;24.258;2022-07-06T08:00:14;91937.63;;;24.43;64.33
20628;BME280;10473;42.734;24.258;2022-07-06T08:02:42;91942.78;;;24.68;65.18
20628;BME280;10473;42.734;24.258;2022-07-06T08:05:10;91937.66;;;25.06;64.11
20628;BME280;10473;42.734;24.258;2022-07-06T08:07:42;91940.47;;;25.20;62.91
20628;BME280;10473;42.734;24.258;2022-07-06T08:10:10;91937.00;;;25.38;63.41
20628;BME280;10473;42.734;24.258;2022-07-06T08:12:39;91951.69;;;25.73;61.95
20628;BME280;10473;42.734;24.258;2022-07-06T08:15:08;91955.84;;;25.92;59.82
20628;BME280;10473;42.734;24.258;2022-07-06T08:17:36;91955.81;;;26.01;59.60
20628;BME280;10473;42.734;24.258;2022-07-06T08:20:06;91964.63;;;26.20;58.62
20628;BME280;10473;42.734;24.258;2022-07-06T08:22:35;91957.63;;;26.04;58.46
20628;BME280;10473;42.734;24.258;2022-07-06T08:25:03;91959.47;;;25.98;58.52
20628;BME280;10473;42.734;24.258;2022-07-06T08:27:31;91963.22;;;26.01;58.42
20628;BME280;10473;42.734;24.258;2022-07-06T08:30:01;91961.88;;;25.96;59.00
20628;BME280;10473;42.734;24.258;2022-07-06T08:32:28;91949.00;;;25.64;59.65
20628;BME280;10473;42.734;24.258;2022-07-06T08:34:56;91955.28;;;24.74;60.33
20628;BME280;10473;42.734;24.258;2022-07-06T08:37:24;91959.97;;;24.07;63.21
20628;BME280;10473;42.734;24.258;2022-07-06T08:39:52;91958.50;;;24.24;62.57
20628;BME280;10473;42.734;24.258;2022-07-06T08:42:20;91931.94;;;23.53;61.50
20628;BME280;10473;42.734;24.258;2022-07-06T08:44:50;91955.22;;;23.81;63.17
20628;BME280;10473;42.734;24.258;2022-07-06T08:47:20;91931.09;;;23.74;62.24
20628;BME280;10473;42.734;24.258;2022-07-06T08:49:50;91957.72;;;24.06;59.32
20628;BME280;10473;42.734;24.258;2022-07-06T08:52:19;91956.53;;;24.25;61.17
20628;BME280;10473;42.734;24.258;2022-07-06T08:54:47;91953.44;;;24.53;62.49
20628;BME280;10473;42.734;24.258;2022-07-06T08:57:15;91960.88;;;24.80;60.16
20628;BME280;10473;42.734;24.258;2022-07-06T08:59:43;91951.97;;;24.88;59.90
20628;BME280;10473;42.734;24.258;2022-07-06T09:02:11;91955.13;;;25.05;56.46
20628;BME280;10473;42.734;24.258;2022-07-06T09:04:43;91954.50;;;25.37;62.56
20628;BME280;10473;42.734;24.258;2022-07-06T09:07:11;91952.03;;;25.57;57.34
20628;BME280;10473;42.734;24.258;2022-07-06T09:09:39;91966.56;;;25.45;54.88
20628;BME280;10473;42.734;24.258;2022-07-06T09:12:11;91944.06;;;25.45;54.46
20628;BME280;10473;42.734;24.258;2022-07-06T09:14:39;91956.50;;;25.78;57.08
20628;BME280;10473;42.734;24.258;2022-07-06T09:17:07;91952.22;;;25.86;55.23
20628;BME280;10473;42.734;24.258;2022-07-06T09:19:35;91942.25;;;26.01;55.60
20628;BME280;10473;42.734;24.258;2022-07-06T09:22:05;91947.91;;;26.12;53.45
20628;BME280;10473;42.734;24.258;2022-07-06T09:24:32;91956.03;;;26.21;53.47
20628;BME280;10473;42.734;24.258;2022-07-06T09:27:06;91954.19;;;26.27;52.51
20628;BME280;10473;42.734;24.258;2022-07-06T09:29:35;91949.09;;;26.20;51.71
20628;BME280;10473;42.734;24.258;2022-07-06T09:32:03;91943.34;;;26.27;50.90
20628;BME280;10473;42.734;24.258;2022-07-06T09:34:41;91936.03;;;26.33;51.19
20628;BME280;10473;42.734;24.258;2022-07-06T09:37:12;91941.31;;;26.60;51.22
20628;BME280;10473;42.734;24.258;2022-07-06T09:39:40;91935.13;;;26.83;53.42
20628;BME280;10473;42.734;24.258;2022-07-06T09:42:08;91946.41;;;27.05;50.35
20628;BME280;10473;42.734;24.258;2022-07-06T09:44:37;91935.13;;;27.21;50.70
20628;BME280;10473;42.734;24.258;2022-07-06T09:47:07;91939.53;;;27.19;47.72
20628;BME280;10473;42.734;24.258;2022-07-06T09:49:36;91932.72;;;27.14;50.96
20628;BME280;10473;42.734;24.258;2022-07-06T09:52:06;91939.38;;;27.13;48.98
20628;BME280;10473;42.734;24.258;2022-07-06T09:54:36;91931.59;;;27.06;49.39
20628;BME280;10473;42.734;24.258;2022-07-06T09:57:05;91928.22;;;27.11;49.64
20628;BME280;10473;42.734;24.258;2022-07-06T09:59:34;91934.03;;;27.04;49.39
20628;BME280;10473;42.734;24.258;2022-07-06T10:02:05;91932.53;;;27.03;49.43
20628;BME280;10473;42.734;24.258;2022-07-06T10:04:33;91930.53;;;26.89;49.22
20628;BME280;10473;42.734;24.258;2022-07-06T10:07:01;91920.47;;;26.81;50.47
20628;BME280;10473;42.734;24.258;2022-07-06T10:09:29;91937.06;;;26.83;50.14
20628;BME280;10473;42.734;24.258;2022-07-06T10:12:02;91922.16;;;26.78;50.29
20628;BME280;10473;42.734;24.258;2022-07-06T10:14:31;91936.91;;;26.63;49.93
20628;BME280;10473;42.734;24.258;2022-07-06T10:17:01;91925.16;;;26.33;50.62
20628;BME280;10473;42.734;24.258;2022-07-06T10:19:30;91937.34;;;26.14;49.84
20628;BME280;10473;42.734;24.258;2022-07-06T10:22:00;91925.53;;;26.17;52.09
20628;BME280;10473;42.734;24.258;2022-07-06T10:24:29;91913.50;;;26.18;50.31
20628;BME280;10473;42.734;24.258;2022-07-06T10:27:02;91927.06;;;26.42;52.57
20628;BME280;10473;42.734;24.258;2022-07-06T10:29:30;91931.50;;;26.54;50.70
20628;BME280;10473;42.734;24.258;2022-07-06T10:31:59;91935.63;;;26.73;53.17
20628;BME280;10473;42.734;24.258;2022-07-06T10:34:27;91935.44;;;26.76;49.86
20628;BME280;10473;42.734;24.258;2022-07-06T10:36:55;91933.81;;;26.93;49.90
20628;BME280;10473;42.734;24.258;2022-07-06T10:39:41;91924.47;;;27.09;49.15
20628;BME280;10473;42.734;24.258;2022-07-06T10:42:41;91908.94;;;27.38;51.25
20628;BME280;10473;42.734;24.258;2022-07-06T10:45:11;91911.53;;;27.62;50.20
20628;BME280;10473;42.734;24.258;2022-07-06T10:47:40;91910.50;;;27.88;49.47
20628;BME280;10473;42.734;24.258;2022-07-06T10:50:08;91905.31;;;28.05;48.71
20628;BME280;10473;42.734;24.258;2022-07-06T10:52:48;91911.81;;;28.27;47.87
20628;BME280;10473;42.734;24.258;2022-07-06T10:55:30;91901.56;;;28.22;47.03
20628;BME280;10473;42.734;24.258;2022-07-06T10:58:00;91896.41;;;28.24;46.33
20628;BME280;10473;42.734;24.258;2022-07-06T11:00:48;91899.97;;;28.30;46.04
20628;BME280;10473;42.734;24.258;2022-07-06T11:03:30;91906.81;;;28.40;45.68
20628;BME280;10473;42.734;24.258;2022-07-06T11:05:58;91909.69;;;28.51;45.30
20628;BME280;10473;42.734;24.258;2022-07-06T11:08:52;91894.69;;;27.29;45.18
20628;BME280;10473;42.734;24.258;2022-07-06T11:11:22;91905.31;;;26.89;46.42
20628;BME280;10473;42.734;24.258;2022-07-06T11:13:56;91902.88;;;26.44;45.63
20628;BME280;10473;42.734;24.258;2022-07-06T11:16:26;91897.75;;;26.69;46.26
20628;BME280;10473;42.734;24.258;2022-07-06T11:19:16;91891.69;;;26.51;45.74
20628;BME280;10473;42.734;24.258;2022-07-06T11:21:45;91885.84;;;26.43;47.97
20628;BME280;10473;42.734;24.258;2022-07-06T11:24:14;91892.69;;;26.62;47.83
20628;BME280;10473;42.734;24.258;2022-07-06T11:26:44;91896.47;;;26.79;48.57
20628;BME280;10473;42.734;24.258;2022-07-06T11:29:15;91891.41;;;26.87;48.76
20628;BME280;10473;42.734;24.258;2022-07-06T11:31:45;91890.47;;;26.90;47.48
20628;BME280;10473;42.734;24.258;2022-07-06T11:34:17;91886.63;;;26.82;48.41
20628;BME280;10473;42.734;24.258;2022-07-06T11:36:45;91888.03;;;26.77;49.02
20628;BME280;10473;42.734;24.258;2022-07-06T11:39:13;91890.25;;;26.64;49.42
20628;BME280;10473;42.734;24.258;2022-07-06T11:41:41;91901.28;;;26.61;50.02
20628;BME280;10473;42.734;24.258;2022-07-06T11:44:09;91897.44;;;26.44;50.25
20628;BME280;10473;42.734;24.258;2022-07-06T11:46:38;91898.97;;;26.45;49.96
20628;BME280;10473;42.734;24.258;2022-07-06T11:49:07;91899.31;;;26.38;50.23
20628;BME280;10473;42.734;24.258;2022-07-06T11:51:36;91903.38;;;26.42;51.36
20628;BME280;10473;42.734;24.258;2022-07-06T11:54:09;91894.00;;;26.43;52.46
20628;BME280;10473;42.734;24.258;2022-07-06T11:56:37;91898.22;;;26.44;52.59
20628;BME280;10473;42.734;24.258;2022-07-06T11:59:06;91903.28;;;26.51;52.89
20628;BME280;10473;42.734;24.258;2022-07-06T12:01:34;91894.75;;;26.67;52.59
20628;BME280;10473;42.734;24.258;2022-07-06T12:04:09;91899.81;;;26.60;51.87
20628;BME280;10473;42.734;24.258;2022-07-06T12:06:37;91890.25;;;26.64;52.54
20628;BME280;10473;42.734;24.258;2022-07-06T12:09:04;91898.63;;;26.52;51.21
20628;BME280;10473;42.734;24.258;2022-07-06T12:11:34;91893.97;;;26.20;51.36
20628;BME280;10473;42.734;24.258;2022-07-06T12:14:13;91897.91;;;25.95;51.29
20628;BME280;10473;42.734;24.258;2022-07-06T12:16:40;91902.44;;;25.89;52.28
20628;BME280;10473;42.734;24.258;2022-07-06T12:19:10;91897.41;;;25.73;51.46
20628;BME280;10473;42.734;24.258;2022-07-06T12:21:42;91896.22;;;25.65;51.58
20628;BME280;10473;42.734;24.258;2022-07-06T12:24:17;91895.03;;;25.57;52.11
20628;BME280;10473;42.734;24.258;2022-07-06T12:26:46;91890.72;;;25.42;51.21
20628;BME280;10473;42.734;24.258;2022-07-06T12:29:14;91883.78;;;25.41;51.93
20628;BME280;10473;42.734;24.258;2022-07-06T12:31:44;91888.91;;;25.48;52.58
20628;BME280;10473;42.734;24.258;2022-07-06T12:34:18;91883.63;;;25.44;51.05
20628;BME280;10473;42.734;24.258;2022-07-06T12:36:47;91897.22;;;25.35;51.32
20628;BME280;10473;42.734;24.258;2022-07-06T12:39:17;91883.06;;;25.22;50.84
20628;BME280;10473;42.734;24.258;2022-07-06T12:41:47;91885.50;;;25.11;51.10
20628;BME280;10473;42.734;24.258;2022-07-06T12:44:17;91880.25;;;24.98;52.03
20628;BME280;10473;42.734;24.258;2022-07-06T12:46:46;91881.31;;;24.92;52.66
20628;BME280;10473;42.734;24.258;2022-07-06T12:49:18;91881.47;;;24.88;52.93
20628;BME280;10473;42.734;24.258;2022-07-06T12:51:54;91882.22;;;24.89;52.05
20628;BME280;10473;42.734;24.258;2022-07-06T12:54:24;91886.91;;;24.88;53.03
20628;BME280;10473;42.734;24.258;2022-07-06T12:57:04;91882.53;;;24.91;51.04
20628;BME280;10473;42.734;24.258;2022-07-06T12:59:35;91885.22;;;25.00;50.60
20628;BME280;10473;42.734;24.258;2022-07-06T13:02:04;91891.22;;;25.13;51.63